TAP143P GMMN-LPPT
Flight info
| Callsign | TAP143P |
|---|---|
| Flight time | N/A |
| Altitude | 36000 |
| Route | LAKAM UR722 AMSEL DCT VATZI |
| Aircraft | A21N/M-SDE2E3FGHIRWXY/LB1 |
Departure
| Time | 2026-05-07 16:43 |
|---|---|
| Airport | Mohammed V International Airport (GMMN) |
Arrival
| Time | N/A |
|---|---|
| Airport | Lisbon Humberto Delgado Airport (LPPT) |
| Time | Latitude | Longitude | Altitude | Speed | Heading |
|---|---|---|---|---|---|
| 2026-05-07 15:42 | 33.37418 | -7.58286 | 659 ft | 0 kts | 77° |
| 2026-05-07 16:19 | 33.37416 | -7.58295 | 658 ft | 3 kts | 78° |
| 2026-05-07 16:19 | 33.37413 | -7.58318 | 658 ft | 3 kts | 85° |
| 2026-05-07 16:20 | 33.37412 | -7.58342 | 658 ft | 3 kts | 96° |
| 2026-05-07 16:20 | 33.37416 | -7.58364 | 658 ft | 3 kts | 121° |
| 2026-05-07 16:20 | 33.37427 | -7.58378 | 658 ft | 2 kts | 161° |
| 2026-05-07 16:20 | 33.37430 | -7.58379 | 658 ft | 1 kts | 165° |
| 2026-05-07 16:28 | 33.37429 | -7.58379 | 658 ft | 1 kts | 165° |
| 2026-05-07 16:29 | 33.37389 | -7.58365 | 658 ft | 8 kts | 165° |
| 2026-05-07 16:29 | 33.37328 | -7.58345 | 658 ft | 10 kts | 164° |
| 2026-05-07 16:29 | 33.37279 | -7.58329 | 658 ft | 12 kts | 164° |
| 2026-05-07 16:30 | 33.37017 | -7.58242 | 658 ft | 16 kts | 164° |
| 2026-05-07 16:30 | 33.36934 | -7.58275 | 658 ft | 13 kts | 248° |
| 2026-05-07 16:30 | 33.36911 | -7.58383 | 658 ft | 14 kts | 254° |
| 2026-05-07 16:31 | 33.36854 | -7.58462 | 658 ft | 15 kts | 175° |
| 2026-05-07 16:31 | 33.36751 | -7.58429 | 658 ft | 16 kts | 163° |
| 2026-05-07 16:31 | 33.36640 | -7.58391 | 658 ft | 17 kts | 163° |
| 2026-05-07 16:31 | 33.36520 | -7.58348 | 658 ft | 19 kts | 163° |
| 2026-05-07 16:32 | 33.36391 | -7.58306 | 658 ft | 20 kts | 165° |
| 2026-05-07 16:32 | 33.36256 | -7.58259 | 658 ft | 21 kts | 163° |
| 2026-05-07 16:32 | 33.36112 | -7.58209 | 658 ft | 22 kts | 164° |
| 2026-05-07 16:32 | 33.35961 | -7.58158 | 658 ft | 23 kts | 164° |
| 2026-05-07 16:33 | 33.35802 | -7.58104 | 658 ft | 24 kts | 164° |
| 2026-05-07 16:33 | 33.35635 | -7.58046 | 658 ft | 26 kts | 164° |
| 2026-05-07 16:33 | 33.35467 | -7.57989 | 658 ft | 19 kts | 165° |
| 2026-05-07 16:33 | 33.35384 | -7.57962 | 658 ft | 7 kts | 164° |
| 2026-05-07 16:34 | 33.35329 | -7.57946 | 658 ft | 9 kts | 176° |
| 2026-05-07 16:34 | 33.35317 | -7.57947 | 658 ft | 0 kts | 184° |
| 2026-05-07 16:34 | 33.35312 | -7.57947 | 658 ft | 2 kts | 184° |
| 2026-05-07 16:34 | 33.35290 | -7.57955 | 658 ft | 5 kts | 206° |
| 2026-05-07 16:35 | 33.35262 | -7.57984 | 658 ft | 6 kts | 236° |
| 2026-05-07 16:35 | 33.35252 | -7.58013 | 658 ft | 0 kts | 253° |
| 2026-05-07 16:36 | 33.35250 | -7.58020 | 658 ft | 2 kts | 254° |
| 2026-05-07 16:37 | 33.35244 | -7.58046 | 658 ft | 4 kts | 256° |
| 2026-05-07 16:37 | 33.35235 | -7.58086 | 658 ft | 0 kts | 251° |
| 2026-05-07 16:40 | 33.35231 | -7.58100 | 658 ft | 4 kts | 251° |
| 2026-05-07 16:40 | 33.35218 | -7.58149 | 659 ft | 8 kts | 253° |
| 2026-05-07 16:40 | 33.35216 | -7.58222 | 660 ft | 10 kts | 289° |
| 2026-05-07 16:40 | 33.35270 | -7.58279 | 659 ft | 12 kts | 340° |
| 2026-05-07 16:41 | 33.35290 | -7.58287 | 659 ft | 0 kts | 346° |
| 2026-05-07 16:42 | 33.35297 | -7.58289 | 659 ft | 6 kts | 346° |
| 2026-05-07 16:42 | 33.35577 | -7.58384 | 651 ft | 78 kts | 345° |
| 2026-05-07 16:42 | 33.36285 | -7.58628 | 655 ft | 132 kts | 344° |
| 2026-05-07 16:43 | 33.37303 | -7.58984 | 733 ft | 164 kts | 345° |
| 2026-05-07 16:43 | 33.38378 | -7.59369 | 1326 ft | 165 kts | 344° |
| 2026-05-07 16:43 | 33.39502 | -7.59773 | 1901 ft | 172 kts | 344° |
| 2026-05-07 16:43 | 33.40711 | -7.60104 | 2391 ft | 185 kts | 355° |
| 2026-05-07 16:44 | 33.42039 | -7.60326 | 2939 ft | 202 kts | 342° |
| 2026-05-07 16:44 | 33.43249 | -7.61333 | 3384 ft | 228 kts | 311° |
| 2026-05-07 16:44 | 33.44150 | -7.62918 | 4057 ft | 238 kts | 303° |
| 2026-05-07 16:44 | 33.45039 | -7.64626 | 4858 ft | 244 kts | 301° |
| 2026-05-07 16:45 | 33.45971 | -7.66355 | 5640 ft | 254 kts | 306° |
| 2026-05-07 16:45 | 33.47403 | -7.67708 | 6128 ft | 275 kts | 336° |
| 2026-05-07 16:45 | 33.49306 | -7.68173 | 6833 ft | 284 kts | 355° |
| 2026-05-07 16:45 | 33.51293 | -7.68287 | 7642 ft | 288 kts | 356° |
| 2026-05-07 16:46 | 33.53312 | -7.68395 | 8421 ft | 294 kts | 355° |
| 2026-05-07 16:46 | 33.55372 | -7.68529 | 9238 ft | 298 kts | 355° |
| 2026-05-07 16:46 | 33.57462 | -7.68682 | 10062 ft | 303 kts | 354° |
| 2026-05-07 16:46 | 33.59627 | -7.68853 | 10497 ft | 322 kts | 354° |
| 2026-05-07 16:47 | 33.61932 | -7.69042 | 10824 ft | 343 kts | 354° |
| 2026-05-07 16:47 | 33.64381 | -7.69244 | 11216 ft | 360 kts | 354° |
| 2026-05-07 16:47 | 33.66903 | -7.69451 | 11895 ft | 366 kts | 354° |
| 2026-05-07 16:47 | 33.69456 | -7.69666 | 12640 ft | 370 kts | 353° |
| 2026-05-07 16:48 | 33.72042 | -7.69880 | 13410 ft | 374 kts | 353° |
| 2026-05-07 16:48 | 33.74655 | -7.70101 | 14103 ft | 378 kts | 353° |
| 2026-05-07 16:48 | 33.77292 | -7.70324 | 14758 ft | 382 kts | 352° |
| 2026-05-07 16:48 | 33.79957 | -7.70548 | 15410 ft | 386 kts | 352° |
| 2026-05-07 16:49 | 33.82655 | -7.70774 | 16063 ft | 390 kts | 352° |
| 2026-05-07 16:49 | 33.85373 | -7.71004 | 16710 ft | 394 kts | 351° |
| 2026-05-07 16:49 | 33.88117 | -7.71233 | 17351 ft | 397 kts | 351° |
| 2026-05-07 16:49 | 33.90883 | -7.71468 | 17971 ft | 401 kts | 351° |
| 2026-05-07 16:50 | 33.93695 | -7.71708 | 18547 ft | 405 kts | 351° |
| 2026-05-07 16:50 | 33.96518 | -7.71947 | 19079 ft | 408 kts | 350° |
| 2026-05-07 16:50 | 33.99364 | -7.72189 | 19616 ft | 412 kts | 350° |
| 2026-05-07 16:50 | 34.02234 | -7.72433 | 20151 ft | 415 kts | 350° |
| 2026-05-07 16:51 | 34.05128 | -7.72678 | 20665 ft | 419 kts | 350° |
| 2026-05-07 16:51 | 34.08020 | -7.72924 | 21176 ft | 422 kts | 350° |
| 2026-05-07 16:51 | 34.10965 | -7.73174 | 21701 ft | 426 kts | 350° |
| 2026-05-07 16:51 | 34.13935 | -7.73427 | 22224 ft | 430 kts | 350° |
| 2026-05-07 16:52 | 34.16928 | -7.73680 | 22738 ft | 433 kts | 350° |
| 2026-05-07 16:52 | 34.19948 | -7.73936 | 23247 ft | 437 kts | 350° |
| 2026-05-07 16:52 | 34.23009 | -7.74154 | 23712 ft | 441 kts | 351° |
| 2026-05-07 16:52 | 34.26076 | -7.74357 | 24162 ft | 443 kts | 351° |
| 2026-05-07 16:53 | 34.29162 | -7.74563 | 24612 ft | 445 kts | 351° |
| 2026-05-07 16:53 | 34.32264 | -7.74775 | 24896 ft | 446 kts | 351° |
| 2026-05-07 16:53 | 34.35367 | -7.74990 | 24963 ft | 446 kts | 351° |
| 2026-05-07 16:53 | 34.38434 | -7.75200 | 25029 ft | 446 kts | 351° |
| 2026-05-07 16:54 | 34.41585 | -7.75416 | 25393 ft | 449 kts | 351° |
| 2026-05-07 16:54 | 34.44708 | -7.75636 | 25844 ft | 450 kts | 351° |
| 2026-05-07 16:54 | 34.47836 | -7.75855 | 26294 ft | 451 kts | 351° |
| 2026-05-07 16:54 | 34.50925 | -7.76074 | 26734 ft | 452 kts | 351° |
| 2026-05-07 16:55 | 34.54080 | -7.76295 | 27124 ft | 454 kts | 351° |
| 2026-05-07 16:55 | 34.57248 | -7.76518 | 27505 ft | 456 kts | 351° |
| 2026-05-07 16:55 | 34.60423 | -7.76741 | 27879 ft | 458 kts | 351° |
| 2026-05-07 16:55 | 34.63614 | -7.76964 | 28253 ft | 460 kts | 351° |
| 2026-05-07 16:56 | 34.66817 | -7.77186 | 28623 ft | 462 kts | 351° |
| 2026-05-07 16:56 | 34.70028 | -7.77409 | 28994 ft | 463 kts | 351° |
| 2026-05-07 16:56 | 34.76488 | -7.77873 | 29675 ft | 467 kts | 350° |
| 2026-05-07 16:57 | 34.79728 | -7.78146 | 29924 ft | 471 kts | 350° |
| 2026-05-07 16:57 | 34.83014 | -7.78426 | 30194 ft | 473 kts | 350° |
| 2026-05-07 16:57 | 34.86303 | -7.78704 | 30562 ft | 472 kts | 350° |
| 2026-05-07 16:57 | 34.89574 | -7.78975 | 30980 ft | 470 kts | 349° |
| 2026-05-07 16:58 | 34.92825 | -7.79246 | 31374 ft | 467 kts | 349° |
| 2026-05-07 16:58 | 34.96066 | -7.79516 | 31777 ft | 465 kts | 349° |
| 2026-05-07 16:58 | 34.99294 | -7.79785 | 32163 ft | 463 kts | 349° |
| 2026-05-07 16:58 | 35.02507 | -7.80056 | 32485 ft | 463 kts | 349° |
| 2026-05-07 16:59 | 35.05726 | -7.80326 | 32749 ft | 464 kts | 349° |
| 2026-05-07 16:59 | 35.08912 | -7.80593 | 33062 ft | 463 kts | 349° |
| 2026-05-07 16:59 | 35.12128 | -7.80863 | 33388 ft | 462 kts | 349° |
| 2026-05-07 16:59 | 35.15333 | -7.81133 | 33701 ft | 461 kts | 349° |
| 2026-05-07 17:00 | 35.18529 | -7.81404 | 33992 ft | 460 kts | 349° |
| 2026-05-07 17:00 | 35.21711 | -7.81672 | 34265 ft | 459 kts | 349° |
| 2026-05-07 17:00 | 35.24890 | -7.81939 | 34530 ft | 458 kts | 349° |
| 2026-05-07 17:00 | 35.28072 | -7.82206 | 34751 ft | 457 kts | 348° |
| 2026-05-07 17:01 | 35.31244 | -7.82473 | 34963 ft | 457 kts | 348° |
| 2026-05-07 17:01 | 35.34417 | -7.82742 | 35181 ft | 456 kts | 348° |
| 2026-05-07 17:01 | 35.37580 | -7.83012 | 35398 ft | 455 kts | 348° |
| 2026-05-07 17:01 | 35.40744 | -7.83278 | 35612 ft | 454 kts | 348° |
| 2026-05-07 17:02 | 35.43889 | -7.83549 | 35802 ft | 453 kts | 347° |
| 2026-05-07 17:02 | 35.47034 | -7.83835 | 35966 ft | 453 kts | 347° |
| 2026-05-07 17:02 | 35.53305 | -7.84404 | 35989 ft | 450 kts | 347° |
| 2026-05-07 17:03 | 35.59543 | -7.84971 | 35951 ft | 449 kts | 347° |
| 2026-05-07 17:03 | 35.65750 | -7.85533 | 35943 ft | 449 kts | 347° |
| 2026-05-07 17:04 | 35.71902 | -7.86460 | 35936 ft | 435 kts | 333° |
| 2026-05-07 17:04 | 35.77410 | -7.89289 | 35947 ft | 427 kts | 328° |
| 2026-05-07 17:05 | 35.82880 | -7.92217 | 35939 ft | 428 kts | 328° |
| 2026-05-07 17:05 | 35.88374 | -7.95083 | 35937 ft | 429 kts | 329° |
| 2026-05-07 17:06 | 35.93874 | -7.97940 | 35938 ft | 429 kts | 329° |
| 2026-05-07 17:06 | 35.99378 | -8.00806 | 35953 ft | 430 kts | 328° |
| 2026-05-07 17:07 | 36.04905 | -8.03698 | 35937 ft | 436 kts | 328° |
| 2026-05-07 17:07 | 36.10500 | -8.06640 | 35935 ft | 437 kts | 328° |
| 2026-05-07 17:08 | 36.16092 | -8.09594 | 35935 ft | 437 kts | 328° |
| 2026-05-07 17:08 | 36.21708 | -8.12506 | 35935 ft | 437 kts | 328° |
| 2026-05-07 17:09 | 36.26369 | -8.14948 | 35942 ft | 437 kts | 328° |
| 2026-05-07 17:09 | 36.31971 | -8.17872 | 35934 ft | 437 kts | 328° |
| 2026-05-07 17:10 | 36.37563 | -8.20813 | 35933 ft | 437 kts | 328° |
| 2026-05-07 17:10 | 36.42449 | -8.23399 | 35933 ft | 437 kts | 328° |
| 2026-05-07 17:11 | 36.48010 | -8.26327 | 35949 ft | 437 kts | 328° |
| 2026-05-07 17:11 | 36.53599 | -8.29276 | 35926 ft | 437 kts | 328° |
| 2026-05-07 17:12 | 36.59183 | -8.32268 | 35935 ft | 436 kts | 327° |
| 2026-05-07 17:12 | 36.64774 | -8.35254 | 35929 ft | 439 kts | 328° |
| 2026-05-07 17:13 | 36.70386 | -8.38214 | 35944 ft | 441 kts | 328° |
| 2026-05-07 17:13 | 36.76035 | -8.41200 | 35906 ft | 440 kts | 328° |
| 2026-05-07 17:14 | 36.78847 | -8.42697 | 35727 ft | 439 kts | 328° |
| 2026-05-07 17:14 | 36.81651 | -8.44199 | 35498 ft | 440 kts | 328° |
| 2026-05-07 17:14 | 36.84475 | -8.45708 | 35253 ft | 441 kts | 328° |
| 2026-05-07 17:14 | 36.87296 | -8.47212 | 35010 ft | 442 kts | 328° |
| 2026-05-07 17:15 | 36.90091 | -8.48706 | 34770 ft | 443 kts | 328° |
| 2026-05-07 17:15 | 36.92928 | -8.50216 | 34532 ft | 444 kts | 328° |
| 2026-05-07 17:15 | 36.95772 | -8.51731 | 34318 ft | 445 kts | 328° |
| 2026-05-07 17:15 | 36.98622 | -8.53254 | 34076 ft | 445 kts | 328° |
| 2026-05-07 17:16 | 37.01466 | -8.54774 | 33568 ft | 443 kts | 328° |
| 2026-05-07 17:16 | 37.04299 | -8.56292 | 32995 ft | 441 kts | 329° |
| 2026-05-07 17:16 | 37.07105 | -8.57799 | 32436 ft | 438 kts | 329° |
| 2026-05-07 17:16 | 37.09908 | -8.59309 | 31861 ft | 437 kts | 329° |
| 2026-05-07 17:17 | 37.12656 | -8.60787 | 31321 ft | 435 kts | 329° |
| 2026-05-07 17:17 | 37.15437 | -8.62283 | 30783 ft | 434 kts | 330° |
| 2026-05-07 17:17 | 37.18204 | -8.63773 | 30268 ft | 432 kts | 330° |
| 2026-05-07 17:17 | 37.20996 | -8.65280 | 29675 ft | 431 kts | 330° |
| 2026-05-07 17:18 | 37.23712 | -8.66748 | 29059 ft | 430 kts | 330° |
| 2026-05-07 17:18 | 37.26454 | -8.68229 | 28479 ft | 427 kts | 331° |
| 2026-05-07 17:18 | 37.29176 | -8.69699 | 27935 ft | 425 kts | 331° |
| 2026-05-07 17:18 | 37.31880 | -8.71162 | 27402 ft | 422 kts | 331° |
| 2026-05-07 17:19 | 37.34577 | -8.72621 | 26868 ft | 420 kts | 331° |
| 2026-05-07 17:19 | 37.37269 | -8.74078 | 26313 ft | 419 kts | 331° |
| 2026-05-07 17:19 | 37.39938 | -8.75525 | 25805 ft | 417 kts | 332° |
| 2026-05-07 17:19 | 37.42602 | -8.76971 | 25281 ft | 416 kts | 332° |
| 2026-05-07 17:20 | 37.45254 | -8.78412 | 24747 ft | 414 kts | 332° |
| 2026-05-07 17:20 | 37.47897 | -8.79848 | 24204 ft | 415 kts | 332° |
| 2026-05-07 17:20 | 37.50550 | -8.81290 | 23658 ft | 414 kts | 332° |
| 2026-05-07 17:20 | 37.53158 | -8.82726 | 23071 ft | 413 kts | 331° |
| 2026-05-07 17:21 | 37.55786 | -8.84189 | 22492 ft | 412 kts | 332° |
| 2026-05-07 17:21 | 37.58409 | -8.85612 | 21901 ft | 408 kts | 332° |
| 2026-05-07 17:21 | 37.61064 | -8.86862 | 21346 ft | 407 kts | 338° |
| 2026-05-07 17:21 | 37.63752 | -8.87949 | 20801 ft | 403 kts | 338° |
| 2026-05-07 17:22 | 37.66411 | -8.89017 | 20274 ft | 398 kts | 338° |
| 2026-05-07 17:22 | 37.69033 | -8.90075 | 19779 ft | 393 kts | 338° |
| 2026-05-07 17:22 | 37.71648 | -8.91077 | 19123 ft | 393 kts | 342° |
| 2026-05-07 17:22 | 37.74318 | -8.91914 | 18246 ft | 396 kts | 343° |
| 2026-05-07 17:23 | 37.76994 | -8.92716 | 17470 ft | 393 kts | 343° |
| 2026-05-07 17:23 | 37.79658 | -8.93313 | 16811 ft | 388 kts | 352° |
| 2026-05-07 17:23 | 37.82352 | -8.93593 | 16143 ft | 387 kts | 354° |
| 2026-05-07 17:23 | 37.85029 | -8.93823 | 15553 ft | 382 kts | 354° |
| 2026-05-07 17:24 | 37.87665 | -8.94067 | 14875 ft | 378 kts | 354° |
| 2026-05-07 17:24 | 37.90270 | -8.94324 | 14367 ft | 373 kts | 354° |
| 2026-05-07 17:24 | 37.92838 | -8.94587 | 13921 ft | 368 kts | 354° |
| 2026-05-07 17:24 | 37.95380 | -8.94851 | 13457 ft | 363 kts | 354° |
| 2026-05-07 17:25 | 37.97886 | -8.95114 | 13022 ft | 358 kts | 354° |
| 2026-05-07 17:25 | 38.00344 | -8.95372 | 12626 ft | 351 kts | 354° |
| 2026-05-07 17:25 | 38.02765 | -8.95634 | 12236 ft | 345 kts | 354° |
| 2026-05-07 17:25 | 38.05143 | -8.95894 | 11840 ft | 341 kts | 354° |
| 2026-05-07 17:26 | 38.07475 | -8.96147 | 11450 ft | 341 kts | 354° |
| 2026-05-07 17:26 | 38.09840 | -8.96401 | 11079 ft | 340 kts | 353° |
| 2026-05-07 17:26 | 38.12101 | -8.97015 | 10685 ft | 327 kts | 337° |
| 2026-05-07 17:26 | 38.14130 | -8.98177 | 10374 ft | 314 kts | 332° |
| 2026-05-07 17:27 | 38.16058 | -8.99379 | 10146 ft | 303 kts | 332° |
| 2026-05-07 17:27 | 38.16698 | -8.99776 | 9980 ft | 303 kts | 332° |